createdAt,value
2023-05-08T00:02:14.049Z,8.55
2023-05-08T00:04:42.653Z,8.56
2023-05-08T00:07:11.202Z,8.59
2023-05-08T00:09:39.849Z,8.58
2023-05-08T00:12:08.567Z,8.57
2023-05-08T00:14:37.186Z,8.55
2023-05-08T00:17:06.096Z,8.55
2023-05-08T00:19:34.866Z,8.54
2023-05-08T00:22:03.273Z,8.55
2023-05-08T00:24:31.703Z,8.53
2023-05-08T00:27:00.483Z,8.50
2023-05-08T00:29:29.501Z,8.48
2023-05-08T00:31:58.037Z,8.46
2023-05-08T00:34:26.736Z,8.46
2023-05-08T00:36:56.811Z,8.47
2023-05-08T00:39:25.663Z,8.50
2023-05-08T00:41:54.710Z,8.49
2023-05-08T00:44:23.630Z,8.53
2023-05-08T00:46:53.677Z,8.52
2023-05-08T00:49:22.688Z,8.54
2023-05-08T00:51:55.018Z,8.56
2023-05-08T00:54:24.355Z,8.55
2023-05-08T00:56:53.624Z,8.50
2023-05-08T00:59:23.178Z,8.53
2023-05-08T01:01:53.399Z,8.53
2023-05-08T01:04:26.287Z,8.55
2023-05-08T01:06:54.923Z,8.56
2023-05-08T01:09:23.474Z,8.56
2023-05-08T01:12:22.560Z,8.54
2023-05-08T01:15:17.177Z,8.54
2023-05-08T01:18:01.232Z,8.50
2023-05-08T01:20:39.743Z,8.47
2023-05-08T01:23:26.736Z,8.43
2023-05-08T01:26:22.271Z,8.41
2023-05-08T01:29:09.738Z,8.40
2023-05-08T01:32:14.584Z,8.43
2023-05-08T01:35:21.773Z,8.47
2023-05-08T01:38:10.946Z,8.47
2023-05-08T01:40:54.091Z,8.44
2023-05-08T01:43:29.372Z,8.40
2023-05-08T01:46:03.196Z,8.41
2023-05-08T01:48:35.618Z,8.45
2023-05-08T01:51:12.551Z,8.49
2023-05-08T01:53:49.711Z,8.50
2023-05-08T01:56:23.073Z,8.50
2023-05-08T01:58:54.773Z,8.48
2023-05-08T02:01:26.012Z,8.48
2023-05-08T02:03:59.017Z,8.52
2023-05-08T02:06:29.391Z,8.57
2023-05-08T02:08:59.541Z,8.60
2023-05-08T02:11:29.760Z,8.60
2023-05-08T02:14:01.915Z,8.58
2023-05-08T02:16:31.181Z,8.55
2023-05-08T02:19:02.196Z,8.54
2023-05-08T02:21:31.963Z,8.53
2023-05-08T02:24:01.619Z,8.53
2023-05-08T02:26:32.390Z,8.53
2023-05-08T02:29:03.549Z,8.54
2023-05-08T02:31:32.458Z,8.54
2023-05-08T02:34:02.635Z,8.56
2023-05-08T02:36:32.401Z,8.58
2023-05-08T02:39:02.885Z,8.55
2023-05-08T02:41:34.095Z,8.55
2023-05-08T02:44:03.077Z,8.55
2023-05-08T02:46:49.974Z,8.53
2023-05-08T02:49:37.222Z,8.51
2023-05-08T02:52:14.775Z,8.52
2023-05-08T02:54:47.333Z,8.50
2023-05-08T02:57:24.829Z,8.43
2023-05-08T03:00:12.908Z,8.46
2023-05-08T03:02:48.020Z,8.48
2023-05-08T03:05:24.729Z,8.47
2023-05-08T03:07:54.731Z,8.47
2023-05-08T03:10:32.047Z,8.49
2023-05-08T03:13:02.199Z,8.48
2023-05-08T03:15:38.439Z,8.48
2023-05-08T03:18:12.018Z,8.50
2023-05-08T03:20:45.599Z,8.46
2023-05-08T03:23:17.482Z,8.34
2023-05-08T03:25:46.566Z,8.24
2023-05-08T03:28:17.952Z,8.15
2023-05-08T03:30:48.218Z,8.08
2023-05-08T03:33:18.634Z,8.01
2023-05-08T03:35:48.735Z,7.94
2023-05-08T03:38:17.752Z,7.90
2023-05-08T03:40:46.750Z,7.86
2023-05-08T03:43:17.714Z,7.81
2023-05-08T03:45:47.950Z,7.77
2023-05-08T03:48:19.469Z,7.74
2023-05-08T03:50:49.419Z,7.73
2023-05-08T03:53:18.167Z,7.71
2023-05-08T03:55:46.779Z,7.69
2023-05-08T03:58:26.673Z,7.69
2023-05-08T04:01:09.357Z,7.67
2023-05-08T04:04:10.064Z,7.67
2023-05-08T04:06:51.350Z,7.65
2023-05-08T04:09:36.287Z,7.67
2023-05-08T04:12:30.029Z,7.69
2023-05-08T04:15:27.154Z,7.69
2023-05-08T04:18:15.043Z,7.74
2023-05-08T04:20:48.320Z,7.74
2023-05-08T04:23:23.289Z,7.76
2023-05-08T04:25:53.863Z,7.78
2023-05-08T04:28:23.131Z,7.81
2023-05-08T04:30:53.480Z,7.79
2023-05-08T04:33:22.753Z,7.79
2023-05-08T04:35:51.643Z,7.80
2023-05-08T04:38:20.571Z,7.77
2023-05-08T04:40:49.267Z,7.77
2023-05-08T04:43:17.757Z,7.78
2023-05-08T04:45:46.589Z,7.74
2023-05-08T04:48:15.075Z,7.70
2023-05-08T04:50:43.313Z,7.67
2023-05-08T04:53:11.812Z,7.66
2023-05-08T04:55:40.637Z,7.65
2023-05-08T04:58:11.194Z,7.65
2023-05-08T05:00:39.607Z,7.62
2023-05-08T05:03:08.347Z,7.60
2023-05-08T05:05:38.894Z,7.58
2023-05-08T05:08:07.769Z,7.53
2023-05-08T05:10:38.026Z,7.56
2023-05-08T05:13:06.317Z,7.55
2023-05-08T05:15:34.678Z,7.54
2023-05-08T05:18:03.441Z,7.54
2023-05-08T05:20:32.074Z,7.55
2023-05-08T05:23:00.637Z,7.51
2023-05-08T05:25:28.954Z,7.49
2023-05-08T05:27:57.439Z,7.45
2023-05-08T05:30:25.754Z,7.45
2023-05-08T05:32:54.007Z,7.43
2023-05-08T05:35:25.400Z,7.38
2023-05-08T05:37:54.101Z,7.31
2023-05-08T05:40:22.297Z,7.28
2023-05-08T05:42:53.750Z,7.24
2023-05-08T05:45:22.315Z,7.23
2023-05-08T05:47:53.270Z,7.19
2023-05-08T05:50:22.673Z,7.20
2023-05-08T05:52:51.170Z,7.17
2023-05-08T05:55:20.159Z,7.15
2023-05-08T05:57:48.754Z,7.14
2023-05-08T06:00:18.191Z,7.16
2023-05-08T06:02:49.484Z,7.16
2023-05-08T06:05:19.808Z,7.14
2023-05-08T06:07:48.098Z,7.11
2023-05-08T06:10:16.526Z,7.10
2023-05-08T06:12:44.814Z,7.06
2023-05-08T06:15:15.305Z,7.02
2023-05-08T06:17:44.980Z,7.00
2023-05-08T06:20:14.594Z,6.95
2023-05-08T06:22:44.720Z,6.95
2023-05-08T06:25:13.836Z,6.94
2023-05-08T06:27:42.858Z,6.94
2023-05-08T06:30:12.167Z,6.96
2023-05-08T06:32:41.060Z,6.98
2023-05-08T06:35:10.588Z,7.00
2023-05-08T06:37:39.801Z,6.99
2023-05-08T06:40:12.474Z,6.97
2023-05-08T06:42:41.978Z,6.94
2023-05-08T06:45:10.980Z,6.95
2023-05-08T06:47:39.856Z,6.98
2023-05-08T06:50:09.249Z,6.97
2023-05-08T06:52:38.303Z,6.98
2023-05-08T06:55:10.755Z,7.01
2023-05-08T06:57:39.237Z,7.01
2023-05-08T07:00:09.150Z,7.02
2023-05-08T07:02:37.547Z,7.02
2023-05-08T07:05:06.949Z,7.06
2023-05-08T07:07:35.817Z,7.08
2023-05-08T07:10:05.926Z,7.09
2023-05-08T07:12:35.760Z,7.07
2023-05-08T07:15:13.871Z,7.07
2023-05-08T07:17:53.160Z,7.10
2023-05-08T07:20:27.809Z,7.15
2023-05-08T07:22:56.217Z,7.21
2023-05-08T07:25:24.709Z,7.21
2023-05-08T07:27:52.959Z,7.17
2023-05-08T07:30:21.446Z,7.18
2023-05-08T07:32:49.963Z,7.23
2023-05-08T07:35:18.316Z,7.22
2023-05-08T07:41:17.707Z,7.39
2023-05-08T07:43:46.133Z,7.37
2023-05-08T07:46:22.168Z,7.36
2023-05-08T07:48:50.662Z,7.36
2023-05-08T07:51:19.007Z,7.36
2023-05-08T07:53:49.027Z,7.32
2023-05-08T07:56:17.795Z,7.33
2023-05-08T07:58:47.952Z,7.34
2023-05-08T08:01:18.344Z,7.36
2023-05-08T08:03:47.295Z,7.42
2023-05-08T08:06:15.850Z,7.50
2023-05-08T08:08:44.340Z,7.48
2023-05-08T08:11:12.837Z,7.47
2023-05-08T08:13:41.213Z,7.48
2023-05-08T08:16:09.570Z,7.44
2023-05-08T08:18:41.816Z,7.45
2023-05-08T08:21:10.238Z,7.42
2023-05-08T08:23:38.748Z,7.40
2023-05-08T08:26:07.368Z,7.47
2023-05-08T08:28:37.593Z,7.54
2023-05-08T08:31:07.035Z,7.56
2023-05-08T08:33:35.414Z,7.62
2023-05-08T08:36:03.911Z,7.63
2023-05-08T08:38:32.316Z,7.71
2023-05-08T08:41:00.631Z,7.78
2023-05-08T08:43:29.572Z,7.81
2023-05-08T08:45:59.479Z,7.84
2023-05-08T08:48:29.057Z,7.78
2023-05-08T08:54:13.140Z,7.70
2023-05-08T08:56:44.876Z,7.74
2023-05-08T08:59:13.627Z,7.80
2023-05-08T09:01:45.465Z,7.84
2023-05-08T09:04:14.122Z,7.88
2023-05-08T09:06:42.413Z,7.91
2023-05-08T09:09:13.200Z,7.85
2023-05-08T09:11:43.164Z,7.78
2023-05-08T09:14:11.770Z,7.77
2023-05-08T09:16:40.540Z,7.74
2023-05-08T09:19:09.465Z,7.67
2023-05-08T09:21:37.853Z,7.64
2023-05-08T09:24:06.684Z,7.69
2023-05-08T09:26:38.080Z,7.72
2023-05-08T09:29:22.271Z,7.68
2023-05-08T09:31:53.455Z,7.65
2023-05-08T09:34:29.322Z,7.65
2023-05-08T09:37:09.980Z,7.65
2023-05-08T09:39:43.495Z,7.62
2023-05-08T09:42:11.954Z,7.61
2023-05-08T09:44:48.395Z,7.62
2023-05-08T09:47:25.618Z,7.59
2023-05-08T09:49:57.229Z,7.56
2023-05-08T09:52:26.651Z,7.54
2023-05-08T09:55:07.118Z,7.58
2023-05-08T09:57:38.703Z,7.57
2023-05-08T10:00:08.999Z,7.61
2023-05-08T10:02:42.634Z,7.54
2023-05-08T10:05:32.168Z,7.49
2023-05-08T10:08:21.940Z,7.43
2023-05-08T10:10:50.686Z,7.37
2023-05-08T10:13:19.095Z,7.33
2023-05-08T10:15:54.776Z,7.32
2023-05-08T10:18:30.222Z,7.31
2023-05-08T10:21:02.347Z,7.32
2023-05-08T10:23:32.808Z,7.29
2023-05-08T10:26:09.350Z,7.30
2023-05-08T10:29:05.384Z,7.24
2023-05-08T10:31:36.633Z,7.19
2023-05-08T10:34:06.198Z,7.17
2023-05-08T10:36:37.176Z,7.18
2023-05-08T10:39:06.387Z,7.17
2023-05-08T10:41:37.503Z,7.14
2023-05-08T10:44:07.105Z,7.16
2023-05-08T10:46:54.780Z,7.19
2023-05-08T10:49:48.502Z,7.21
2023-05-08T10:52:24.474Z,7.17
2023-05-08T10:55:04.838Z,7.20
2023-05-08T10:57:33.208Z,7.22
2023-05-08T11:00:01.473Z,7.26
2023-05-08T11:02:32.889Z,7.23
2023-05-08T11:05:17.778Z,7.28
2023-05-08T11:08:01.630Z,7.26
2023-05-08T11:10:37.528Z,7.25
2023-05-08T11:13:07.880Z,7.24
2023-05-08T11:15:41.030Z,7.24
2023-05-08T11:18:11.818Z,7.29
2023-05-08T11:20:42.097Z,7.28
2023-05-08T11:23:27.549Z,7.24
2023-05-08T11:26:04.953Z,7.23
2023-05-08T11:28:37.838Z,7.26
2023-05-08T11:31:09.499Z,7.25
2023-05-08T11:33:38.676Z,7.30
2023-05-08T11:36:17.657Z,7.29
2023-05-08T11:39:06.310Z,7.30
2023-05-08T11:41:34.671Z,7.28
2023-05-08T11:44:03.035Z,7.33
2023-05-08T11:46:53.760Z,7.37
2023-05-08T11:49:28.070Z,7.40
2023-05-08T11:51:59.484Z,7.46
2023-05-08T11:54:31.149Z,7.52
2023-05-08T11:56:59.962Z,7.58
2023-05-08T11:59:28.331Z,7.60
2023-05-08T12:02:07.482Z,7.68
2023-05-08T12:04:47.378Z,7.76
2023-05-08T12:07:16.616Z,7.85
2023-05-08T12:09:48.636Z,7.87
2023-05-08T12:12:17.069Z,7.98
2023-05-08T12:14:49.924Z,8.06
2023-05-08T12:17:21.567Z,8.14
2023-05-08T12:19:55.087Z,8.16
2023-05-08T12:22:23.437Z,8.23
2023-05-08T12:24:51.895Z,8.30
2023-05-08T12:27:20.284Z,8.44
2023-05-08T12:29:48.582Z,8.45
2023-05-08T12:32:17.131Z,8.42
2023-05-08T12:34:45.641Z,8.40
2023-05-08T12:37:24.346Z,8.56
2023-05-08T12:39:52.824Z,8.68
2023-05-08T12:42:21.684Z,8.65
2023-05-08T12:44:54.214Z,8.63
2023-05-08T12:47:22.589Z,8.66
2023-05-08T12:49:50.940Z,8.64
2023-05-08T12:52:19.562Z,8.59
2023-05-08T12:54:49.539Z,8.53
2023-05-08T12:57:20.012Z,8.52
2023-05-08T12:59:49.258Z,8.53
2023-05-08T13:02:21.801Z,8.63
2023-05-08T13:04:58.348Z,8.68
2023-05-08T13:07:32.717Z,8.68
2023-05-08T13:10:04.959Z,8.74
2023-05-08T13:12:34.430Z,8.66
2023-05-08T13:15:05.085Z,8.66
2023-05-08T13:17:33.617Z,8.68
2023-05-08T13:20:05.925Z,8.81
2023-05-08T13:22:34.649Z,8.81
2023-05-08T13:25:04.080Z,8.88
2023-05-08T13:27:32.739Z,8.94
2023-05-08T13:30:01.172Z,8.89
